Time;durP1;ratioP1;P1;durP2;ratioP2;P2;SDS_P1;SDS_P2;PMS_P1;PMS_P2;Temp;Humidity;BMP_temperature;BMP_pressure;BME280_temperature;BME280_humidity;BME280_pressure;Samples;Min_cycle;Max_cycle;Signal;HPM_P1;HPM_P2
2023/06/29 00:00:08;;;;;;;4.90;2.10;;;;;;;19.52;75.14;100981.27;107080;1257;61162;-69
2023/06/29 00:02:36;;;;;;;4.90;2.20;;;;;;;19.51;75.13;100980.08;107088;1256;73554;-70
2023/06/29 00:05:03;;;;;;;4.00;2.20;;;;;;;19.53;75.31;100980.43;106987;1259;70401;-69
2023/06/29 00:07:33;;;;;;;4.60;2.80;;;;;;;19.52;75.48;100976.42;107218;1256;72513;-71
2023/06/29 00:10:00;;;;;;;4.40;2.40;;;;;;;19.50;75.80;100978.80;107345;1256;61257;-69
2023/06/29 00:12:27;;;;;;;4.30;2.30;;;;;;;19.48;75.96;100978.64;107318;1256;60306;-70
2023/06/29 00:14:55;;;;;;;4.90;2.80;;;;;;;19.47;76.00;100976.45;107626;1257;74765;-70
2023/06/29 00:17:22;;;;;;;4.10;2.40;;;;;;;19.47;76.18;100973.81;106931;1256;70407;-69
2023/06/29 00:19:49;;;;;;;3.20;2.40;;;;;;;19.47;76.45;100977.03;107099;1256;72774;-71
2023/06/29 00:22:18;;;;;;;6.00;2.50;;;;;;;19.46;76.46;100974.21;107460;1256;61959;-71
2023/06/29 00:24:54;;;;;;;5.30;2.70;;;;;;;19.47;76.58;100969.66;107290;1257;61286;-71
2023/06/29 00:27:21;;;;;;;5.80;2.50;;;;;;;19.46;76.70;100970.16;107544;1257;75591;-70
2023/06/29 00:29:49;;;;;;;3.40;2.40;;;;;;;19.44;76.84;100972.21;107574;1256;71372;-70
2023/06/29 00:32:15;;;;;;;6.60;2.60;;;;;;;19.44;76.82;100971.89;107434;1256;72879;-69
2023/06/29 00:34:42;;;;;;;4.90;2.60;;;;;;;19.45;77.05;100973.16;107490;1256;61151;-70
2023/06/29 00:37:09;;;;;;;3.10;2.20;;;;;;;19.46;77.01;100978.08;106977;1256;60441;-70
2023/06/29 00:39:35;;;;;;;5.20;2.50;;;;;;;19.45;77.08;100970.64;107296;1256;73651;-70
2023/06/29 00:42:02;;;;;;;5.50;2.60;;;;;;;19.44;77.17;100971.48;106801;1256;859907;-70
2023/06/29 00:44:29;;;;;;;3.60;2.40;;;;;;;19.44;77.27;100967.55;107615;1256;73713;-70
2023/06/29 00:46:56;;;;;;;4.10;2.70;;;;;;;19.43;77.29;100967.84;107297;1258;61190;-69
2023/06/29 00:49:23;;;;;;;4.20;2.70;;;;;;;19.42;77.44;100960.45;107625;1258;60311;-69
2023/06/29 00:51:52;;;;;;;4.50;2.60;;;;;;;19.42;77.52;100961.61;107288;1256;74728;-71
2023/06/29 00:54:20;;;;;;;5.30;2.70;;;;;;;19.40;77.62;100954.09;107458;1256;71424;-69
2023/06/29 00:56:47;;;;;;;4.10;2.90;;;;;;;19.40;77.75;100950.80;107252;1256;72781;-69
2023/06/29 00:59:14;;;;;;;5.10;2.70;;;;;;;19.39;77.82;100950.73;106864;1257;62043;-71
2023/06/29 01:01:41;;;;;;;4.20;2.50;;;;;;;19.41;77.89;100950.45;106995;1256;61208;-71
2023/06/29 01:04:10;;;;;;;4.80;2.60;;;;;;;19.41;77.88;100950.03;107848;1260;75124;-71
2023/06/29 01:06:44;;;;;;;3.60;2.70;;;;;;;19.41;77.91;100947.87;107756;1256;70473;-72
2023/06/29 01:09:13;;;;;;;4.20;2.70;;;;;;;19.41;77.93;100945.44;106752;1256;73749;-72
2023/06/29 01:11:41;;;;;;;5.00;2.80;;;;;;;19.41;77.97;100946.15;107567;1256;62141;-71
2023/06/29 01:14:11;;;;;;;6.60;2.90;;;;;;;19.40;78.10;100939.33;107110;1256;61343;-71
2023/06/29 01:16:38;;;;;;;5.00;2.90;;;;;;;19.38;78.13;100937.26;106980;1260;73136;-72
2023/06/29 01:19:11;;;;;;;4.60;3.30;;;;;;;19.37;78.37;100934.54;106912;1256;69944;-70
2023/06/29 01:21:50;;;;;;;4.40;2.90;;;;;;;19.37;78.55;100932.96;107946;1256;71692;-71
2023/06/29 01:24:20;;;;;;;3.30;2.60;;;;;;;19.35;78.65;100931.70;107074;1256;62842;-70
2023/06/29 01:26:47;;;;;;;3.70;2.90;;;;;;;19.32;78.81;100928.10;107491;1256;60343;-71
2023/06/29 01:29:14;;;;;;;4.30;2.90;;;;;;;19.28;78.90;100927.17;106943;1256;73119;-71
2023/06/29 01:31:41;;;;;;;5.50;3.20;;;;;;;19.23;79.19;100927.05;107263;1257;70896;-70
2023/06/29 01:34:08;;;;;;;3.50;3.00;;;;;;;19.19;79.27;100920.95;107105;1258;71508;-70
2023/06/29 01:36:42;;;;;;;5.40;3.00;;;;;;;19.14;79.45;100920.13;107184;1256;61231;-69
2023/06/29 01:39:19;;;;;;;5.20;3.10;;;;;;;19.11;79.80;100923.16;107468;1256;59300;-69
2023/06/29 01:41:47;;;;;;;5.00;3.40;;;;;;;19.07;80.01;100920.30;107790;1261;74727;-70
2023/06/29 01:44:18;;;;;;;4.00;3.10;;;;;;;19.05;80.14;100920.45;108237;1258;71238;-69
2023/06/29 01:46:46;;;;;;;5.60;3.10;;;;;;;19.03;80.28;100918.73;107514;1256;71558;-70
2023/06/29 01:49:13;;;;;;;4.90;3.60;;;;;;;19.02;80.58;100914.58;106982;1257;61433;-70
2023/06/29 01:51:40;;;;;;;6.10;3.80;;;;;;;19.00;80.77;100915.88;107195;1256;61150;-69
2023/06/29 01:54:07;;;;;;;5.80;3.50;;;;;;;18.99;81.00;100910.85;107037;1259;74681;-69
2023/06/29 01:56:34;;;;;;;4.70;3.60;;;;;;;18.97;81.23;100907.48;107615;1256;71450;-70
2023/06/29 01:59:02;;;;;;;5.20;4.00;;;;;;;18.94;81.54;100903.42;107395;1257;72726;-70
2023/06/29 02:01:30;;;;;;;5.10;4.00;;;;;;;18.90;81.86;100902.90;107358;1256;61241;-70
2023/06/29 02:03:57;;;;;;;5.90;4.10;;;;;;;18.88;82.13;100902.87;107487;1256;59753;-69
2023/06/29 02:06:24;;;;;;;6.40;4.40;;;;;;;18.86;82.32;100907.66;106817;1256;73434;-70
2023/06/29 02:08:51;;;;;;;5.30;4.30;;;;;;;18.85;82.37;100906.38;106964;1257;69714;-69
2023/06/29 02:11:19;;;;;;;5.60;4.30;;;;;;;18.83;82.59;100904.88;107350;1256;72809;-70
2023/06/29 02:13:47;;;;;;;6.00;4.40;;;;;;;18.81;82.73;100903.59;107314;1256;62076;-72
2023/06/29 02:16:14;;;;;;;7.00;4.70;;;;;;;18.78;82.94;100899.50;107769;1256;60755;-69
2023/06/29 02:18:41;;;;;;;8.70;4.80;;;;;;;18.76;83.11;100896.98;107671;1256;74831;-72
2023/06/29 02:21:08;;;;;;;6.80;5.00;;;;;;;18.72;83.39;100897.14;107373;1256;70439;-70
2023/06/29 02:23:34;;;;;;;6.80;5.70;;;;;;;18.72;83.27;100897.44;108686;1256;72832;-70
2023/06/29 02:26:01;;;;;;;6.60;5.60;;;;;;;18.71;83.28;100903.86;107384;1256;61942;-70
2023/06/29 02:28:29;;;;;;;6.60;5.60;;;;;;;18.69;83.27;100903.11;107071;1256;60403;-70
2023/06/29 02:30:56;;;;;;;9.80;6.00;;;;;;;18.67;83.40;100905.33;107259;1257;73985;-70
2023/06/29 02:33:23;;;;;;;7.50;5.90;;;;;;;18.65;83.37;100907.14;107322;1256;71769;-74
2023/06/29 02:35:49;;;;;;;8.40;6.00;;;;;;;18.64;83.42;100908.02;107035;1256;71417;-69
2023/06/29 02:38:17;;;;;;;6.40;5.80;;;;;;;18.63;83.44;100905.23;107621;1261;62076;-69
2023/06/29 02:40:44;;;;;;;8.00;6.20;;;;;;;18.62;83.31;100905.16;106782;1259;61212;-69
2023/06/29 02:43:11;;;;;;;7.30;6.30;;;;;;;18.62;83.36;100903.59;107667;1256;73647;-69
2023/06/29 02:45:38;;;;;;;8.10;6.40;;;;;;;18.61;83.41;100898.73;107000;1256;70730;-70
2023/06/29 02:48:05;;;;;;;7.10;6.30;;;;;;;18.60;83.49;100900.42;107574;1257;71507;-70
2023/06/29 02:50:33;;;;;;;6.70;6.10;;;;;;;18.60;83.49;100897.04;107083;1256;61319;-69
2023/06/29 02:53:00;;;;;;;8.00;6.40;;;;;;;18.61;83.53;100896.15;107060;1257;61243;-71
2023/06/29 02:55:26;;;;;;;7.20;6.50;;;;;;;18.62;83.60;100889.05;107857;1257;73475;-70
2023/06/29 02:57:53;;;;;;;7.40;6.70;;;;;;;18.62;83.69;100888.30;107366;1256;71198;-70
2023/06/29 03:00:20;;;;;;;8.60;6.60;;;;;;;18.61;83.78;100884.83;107169;1256;72727;-70
2023/06/29 03:02:47;;;;;;;8.80;7.20;;;;;;;18.59;83.86;100883.52;107010;1256;62229;-70
2023/06/29 03:05:14;;;;;;;7.80;7.10;;;;;;;18.58;84.10;100882.74;107202;1256;60114;-71
2023/06/29 03:07:40;;;;;;;7.90;6.90;;;;;;;18.57;84.24;100883.63;107565;1261;73495;-71
2023/06/29 03:10:08;;;;;;;7.90;7.00;;;;;;;18.56;84.26;100879.35;107119;1256;71555;-71
2023/06/29 03:12:35;;;;;;;8.10;7.30;;;;;;;18.55;84.56;100879.64;107513;1256;72780;-70
2023/06/29 03:15:02;;;;;;;9.30;7.60;;;;;;;18.54;84.68;100879.62;106796;1256;61304;-70
2023/06/29 03:17:29;;;;;;;9.70;7.70;;;;;;;18.52;84.87;100879.13;107125;1256;61714;-71
2023/06/29 03:19:56;;;;;;;8.50;7.60;;;;;;;18.51;84.99;100878.20;107570;1256;74691;-69
2023/06/29 03:22:25;;;;;;;8.80;7.90;;;;;;;18.51;84.99;100874.81;107548;1256;69993;-70
2023/06/29 03:24:52;;;;;;;8.50;7.70;;;;;;;18.52;85.27;100873.52;107827;1256;72425;-69
2023/06/29 03:27:19;;;;;;;10.00;8.10;;;;;;;18.51;85.42;100879.90;107376;1260;62094;-70
2023/06/29 03:29:51;;;;;;;8.40;7.60;;;;;;;18.50;85.48;100878.21;107479;1257;61154;-71
2023/06/29 03:32:18;;;;;;;8.40;7.50;;;;;;;18.50;85.55;100880.31;107175;1256;73752;-72
2023/06/29 03:34:45;;;;;;;9.10;8.20;;;;;;;18.52;85.62;100880.42;106763;1256;71705;-72
2023/06/29 03:37:11;;;;;;;8.90;7.90;;;;;;;18.53;85.79;100882.05;107306;1256;72730;-71
2023/06/29 03:39:38;;;;;;;9.10;8.20;;;;;;;18.54;85.77;100878.42;107651;1256;61961;-72
2023/06/29 03:42:06;;;;;;;8.60;7.70;;;;;;;18.55;85.89;100878.58;106666;1256;61534;-71
2023/06/29 03:44:34;;;;;;;10.20;8.40;;;;;;;18.57;85.82;100876.48;107015;1256;73454;-71
2023/06/29 03:47:01;;;;;;;8.70;7.90;;;;;;;18.60;85.85;100873.11;107070;1257;72363;-72
2023/06/29 03:49:27;;;;;;;8.90;8.00;;;;;;;18.62;85.77;100876.73;107526;1256;71529;-71
2023/06/29 03:51:54;;;;;;;9.50;8.30;;;;;;;18.63;85.69;100876.54;106798;1257;62908;-70
2023/06/29 03:54:21;;;;;;;9.20;8.30;;;;;;;18.64;85.55;100875.17;107359;1256;61244;-70
2023/06/29 03:56:48;;;;;;;9.30;7.90;;;;;;;18.63;85.37;100871.66;107491;1256;74850;-70
2023/06/29 03:59:15;;;;;;;8.90;8.00;;;;;;;18.64;85.26;100867.11;108684;1259;71194;-71
2023/06/29 04:01:42;;;;;;;9.70;8.60;;;;;;;18.67;85.22;100870.97;108246;1257;71462;-70
2023/06/29 04:04:09;;;;;;;9.00;8.10;;;;;;;18.68;85.03;100868.70;106653;1258;62454;-70
2023/06/29 04:06:35;;;;;;;8.80;7.90;;;;;;;18.71;84.79;100866.44;107346;1256;61445;-71
2023/06/29 04:09:02;;;;;;;9.60;7.90;;;;;;;18.73;84.68;100864.80;107888;1258;74681;-70
2023/06/29 04:11:29;;;;;;;10.40;8.20;;;;;;;18.76;84.49;100864.73;106923;1258;71078;-70
2023/06/29 04:13:56;;;;;;;9.70;8.00;;;;;;;18.81;84.37;100861.56;107375;1257;72245;-71
2023/06/29 04:16:23;;;;;;;10.10;8.10;;;;;;;18.86;84.21;100862.61;106826;1256;61831;-70
2023/06/29 04:18:50;;;;;;;8.40;7.50;;;;;;;18.90;84.01;100859.38;107030;1257;61264;-72
2023/06/29 04:21:17;;;;;;;8.60;7.60;;;;;;;18.92;83.81;100861.70;107160;1257;73475;-76
2023/06/29 04:23:44;;;;;;;8.90;8.00;;;;;;;18.95;83.79;100859.73;106718;1256;70162;-74
2023/06/29 04:26:10;;;;;;;8.70;7.80;;;;;;;18.97;83.77;100860.49;106620;1256;71871;-74
2023/06/29 04:28:38;;;;;;;9.00;8.10;;;;;;;19.02;83.57;100862.64;107056;1260;60783;-73
2023/06/29 04:31:05;;;;;;;8.40;7.60;;;;;;;19.04;83.44;100858.17;106798;1256;61638;-74
2023/06/29 04:33:32;;;;;;;8.20;7.30;;;;;;;19.05;83.10;100860.40;107778;1256;74700;-74
2023/06/29 04:35:59;;;;;;;10.60;8.00;;;;;;;19.08;83.31;100862.00;106614;1259;71351;-72
2023/06/29 04:38:27;;;;;;;9.10;7.20;;;;;;;19.12;83.10;100860.70;107159;1256;71576;-76
2023/06/29 04:41:03;;;;;;;8.80;7.40;;;;;;;19.17;83.03;100855.97;107049;1256;61771;-74
2023/06/29 04:43:31;;;;;;;8.10;7.30;;;;;;;19.20;82.70;100857.35;106874;1256;61352;-77
2023/06/29 04:46:00;;;;;;;9.40;7.30;;;;;;;19.21;82.76;100858.31;107421;1261;74059;-77
2023/06/29 04:48:37;;;;;;;9.10;7.00;;;;;;;19.24;82.70;100860.09;107336;1256;71086;-77
2023/06/29 04:51:05;;;;;;;8.00;7.20;;;;;;;19.28;82.68;100861.02;108488;1256;73721;-76
2023/06/29 04:53:33;;;;;;;9.80;7.60;;;;;;;19.31;82.45;100860.33;106928;1256;61870;-77
2023/06/29 04:56:03;;;;;;;8.60;6.60;;;;;;;19.34;82.60;100860.37;107256;1260;59527;-77
2023/06/29 04:58:30;;;;;;;9.80;7.60;;;;;;;19.35;82.61;100860.39;107307;1256;74662;-76
2023/06/29 05:00:57;;;;;;;8.20;7.00;;;;;;;19.38;82.55;100858.05;107452;1260;70920;-75
2023/06/29 05:03:25;;;;;;;7.90;7.00;;;;;;;19.39;82.67;100858.19;106890;1256;72707;-74
2023/06/29 05:05:52;;;;;;;8.00;6.80;;;;;;;19.42;82.61;100857.73;107464;1259;61204;-75
2023/06/29 05:08:19;;;;;;;8.00;7.20;;;;;;;19.46;82.57;100854.92;107440;1256;61113;-75
2023/06/29 05:10:46;;;;;;;8.80;7.40;;;;;;;19.53;82.52;100851.23;107694;1256;73551;-74
2023/06/29 05:13:13;;;;;;;10.00;7.20;;;;;;;19.59;82.35;100847.11;106212;1259;70572;-74
2023/06/29 05:15:40;;;;;;;8.70;6.80;;;;;;;19.65;82.31;100847.44;106562;1256;71948;-74
2023/06/29 05:18:09;;;;;;;7.70;6.40;;;;;;;19.72;82.10;100847.23;106857;1257;61237;-74
2023/06/29 05:20:36;;;;;;;8.80;6.90;;;;;;;19.77;82.09;100846.08;106653;1257;59468;-75
2023/06/29 05:23:02;;;;;;;8.20;6.60;;;;;;;19.85;81.99;100837.77;107583;1257;73495;-76
2023/06/29 05:25:29;;;;;;;8.50;6.70;;;;;;;19.93;81.81;100836.36;105956;1257;69647;-74
2023/06/29 05:27:56;;;;;;;8.40;6.40;;;;;;;20.02;81.55;100838.86;106421;1260;72989;-74
2023/06/29 05:30:23;;;;;;;6.70;6.00;;;;;;;20.11;81.18;100833.90;106181;1259;61770;-76
2023/06/29 05:32:51;;;;;;;8.90;6.80;;;;;;;20.18;80.73;100828.06;106488;1257;61385;-79
2023/06/29 05:35:18;;;;;;;8.50;6.60;;;;;;;20.22;79.98;100828.36;107696;1257;73209;-77
2023/06/29 05:37:47;;;;;;;9.30;6.50;;;;;;;20.26;80.07;100825.18;105967;1256;69341;-74
2023/06/29 05:40:15;;;;;;;9.30;6.70;;;;;;;20.32;80.04;100824.88;106261;1256;72739;-77
2023/06/29 05:42:42;;;;;;;8.30;6.20;;;;;;;20.35;79.31;100827.60;106506;1256;61244;-74
2023/06/29 05:45:09;;;;;;;8.30;6.80;;;;;;;20.36;79.18;100825.18;106545;1262;61179;-76
2023/06/29 05:47:36;;;;;;;7.60;6.30;;;;;;;20.33;79.09;100822.33;106203;1260;73903;-76
2023/06/29 05:50:04;;;;;;;9.70;7.20;;;;;;;20.33;79.29;100820.76;105991;1258;72204;-75
2023/06/29 05:52:33;;;;;;;10.70;6.40;;;;;;;20.35;79.10;100823.75;106798;1256;71195;-74
2023/06/29 05:55:01;;;;;;;8.70;6.70;;;;;;;20.37;78.87;100826.33;106088;1258;61821;-76
2023/06/29 05:57:28;;;;;;;9.20;6.90;;;;;;;20.40;78.74;100828.39;106348;1256;61306;-74
2023/06/29 05:59:55;;;;;;;9.40;6.70;;;;;;;20.45;78.85;100835.34;106205;1258;73401;-74
2023/06/29 06:02:22;;;;;;;9.50;6.80;;;;;;;20.53;78.60;100838.27;105876;1263;71359;-74
2023/06/29 06:04:49;;;;;;;9.20;6.90;;;;;;;20.61;78.44;100831.61;106816;1256;71278;-76
2023/06/29 06:07:36;;;;;;;11.30;7.00;;;;;;;20.67;77.72;100832.44;106184;1256;61416;-73
2023/06/29 06:10:04;;;;;;;11.80;7.50;;;;;;;20.75;77.41;100831.20;106010;1257;61262;-75
2023/06/29 06:12:31;;;;;;;9.80;7.00;;;;;;;20.83;76.60;100828.31;107777;1257;73452;-77
2023/06/29 06:14:57;;;;;;;9.60;7.10;;;;;;;20.90;76.21;100826.66;106349;1257;69715;-73
2023/06/29 06:17:25;;;;;;;9.50;7.30;;;;;;;20.99;75.57;100829.61;106670;1257;72460;-74
2023/06/29 06:19:54;;;;;;;13.20;7.10;;;;;;;21.08;75.03;100827.02;106647;1260;61279;-76
2023/06/29 06:22:21;;;;;;;12.50;7.20;;;;;;;21.20;75.02;100826.38;107250;1262;61600;-74
2023/06/29 06:24:48;;;;;;;14.00;7.10;;;;;;;21.33;74.71;100825.63;106826;1256;73140;-76
2023/06/29 06:27:15;;;;;;;10.10;6.80;;;;;;;21.48;74.62;100821.70;106504;1256;70799;-76
2023/06/29 06:29:43;;;;;;;10.10;6.90;;;;;;;21.64;73.61;100822.23;106704;1262;71605;-76
2023/06/29 06:32:11;;;;;;;11.20;6.60;;;;;;;21.77;72.96;100822.60;106453;1262;61247;-74
2023/06/29 06:34:38;;;;;;;12.10;6.30;;;;;;;21.91;72.65;100821.80;106362;1256;61273;-77
2023/06/29 06:37:06;;;;;;;11.00;6.80;;;;;;;22.01;71.23;100816.59;106927;1256;74838;-73
2023/06/29 06:39:33;;;;;;;9.00;6.70;;;;;;;22.11;70.85;100813.86;106951;1257;69605;-74
2023/06/29 06:42:00;;;;;;;9.00;6.10;;;;;;;22.20;70.49;100808.96;106080;1256;71328;-74
2023/06/29 06:44:27;;;;;;;10.40;6.60;;;;;;;22.31;69.98;100808.71;106248;1256;61409;-75
2023/06/29 06:46:54;;;;;;;9.00;7.00;;;;;;;22.41;69.62;100804.13;107053;1256;61270;-75
2023/06/29 06:49:21;;;;;;;11.80;7.20;;;;;;;22.50;68.85;100804.83;106077;1256;72766;-75
2023/06/29 06:51:49;;;;;;;8.30;6.30;;;;;;;22.56;67.80;100806.55;106331;1257;69135;-74
2023/06/29 06:54:15;;;;;;;9.70;6.70;;;;;;;22.58;67.76;100804.19;107309;1256;71497;-75
2023/06/29 06:56:43;;;;;;;10.20;6.30;;;;;;;22.65;67.89;100806.31;107238;1257;63156;-76
2023/06/29 06:59:12;;;;;;;10.90;6.60;;;;;;;22.75;67.61;100806.70;107647;1256;61347;-78
2023/06/29 07:01:41;;;;;;;10.50;6.50;;;;;;;22.82;66.94;100806.61;107214;1257;73437;-75
2023/06/29 07:04:09;;;;;;;9.50;6.20;;;;;;;22.90;66.13;100809.67;107120;1260;70404;-74
2023/06/29 07:06:36;;;;;;;10.30;6.50;;;;;;;22.96;65.82;100812.93;107165;1257;72685;-76
2023/06/29 07:09:03;;;;;;;10.50;6.40;;;;;;;23.04;65.48;100817.42;108229;1256;62661;-75
2023/06/29 07:11:30;;;;;;;10.00;6.10;;;;;;;23.11;65.59;100816.79;106633;1258;61772;-73
2023/06/29 07:13:57;;;;;;;10.70;6.10;;;;;;;23.15;65.22;100815.86;107378;1256;74702;-76
2023/06/29 07:16:25;;;;;;;11.00;6.70;;;;;;;23.20;64.95;100815.15;106749;1259;70987;-76
2023/06/29 07:19:05;;;;;;;12.90;7.50;;;;;;;23.28;64.92;100814.24;106613;1258;72691;-75
2023/06/29 07:21:35;;;;;;;9.90;6.50;;;;;;;23.38;64.78;100810.07;106129;1257;61171;-76
2023/06/29 07:24:02;;;;;;;9.50;6.80;;;;;;;23.46;64.28;100807.05;106567;1256;61247;-74
2023/06/29 07:26:33;;;;;;;11.60;6.10;;;;;;;23.55;63.84;100803.70;107110;1257;73426;-76
2023/06/29 07:29:00;;;;;;;7.60;6.00;;;;;;;23.59;63.47;100798.92;106665;1262;69792;-74
2023/06/29 07:31:29;;;;;;;9.90;6.10;;;;;;;23.63;63.40;100799.23;106803;1259;72740;-77
2023/06/29 07:33:56;;;;;;;9.60;5.70;;;;;;;23.70;63.59;100798.45;106857;1257;61952;-75
2023/06/29 07:36:25;;;;;;;9.70;6.50;;;;;;;23.74;63.09;100796.64;106635;1257;61256;-75
2023/06/29 07:38:52;;;;;;;8.00;5.60;;;;;;;23.75;62.78;100795.09;106556;1257;74816;-75
2023/06/29 07:41:19;;;;;;;8.50;5.40;;;;;;;23.82;63.26;100790.98;106398;1257;71167;-73
2023/06/29 07:43:56;;;;;;;8.10;5.40;;;;;;;23.89;62.63;100787.66;106916;1261;73123;-73
2023/06/29 07:46:23;;;;;;;10.90;5.50;;;;;;;23.95;62.22;100787.59;106833;1258;62069;-75
2023/06/29 07:48:51;;;;;;;8.10;6.20;;;;;;;23.96;61.55;100786.73;106984;1258;62106;-75
2023/06/29 07:51:18;;;;;;;8.90;5.20;;;;;;;24.00;61.66;100785.45;107262;1259;75331;-75
2023/06/29 07:53:45;;;;;;;7.70;5.20;;;;;;;24.07;62.13;100787.55;106248;1257;69764;-74
2023/06/29 07:56:12;;;;;;;10.40;5.50;;;;;;;24.13;61.77;100783.63;106385;1258;72238;-75
2023/06/29 07:58:39;;;;;;;8.10;5.00;;;;;;;24.24;62.08;100780.42;106544;1262;61337;-74
2023/06/29 08:01:06;;;;;;;9.70;5.70;;;;;;;24.35;61.72;100780.47;106519;1256;61325;-74
2023/06/29 08:03:33;;;;;;;9.00;5.90;;;;;;;24.48;61.55;100784.55;106781;1257;74330;-74
2023/06/29 08:06:17;;;;;;;15.00;6.70;;;;;;;24.65;61.16;100783.21;106827;1256;71189;-76
2023/06/29 08:08:47;;;;;;;9.90;5.40;;;;;;;24.76;60.64;100778.36;107588;1256;71877;-73
2023/06/29 08:11:14;;;;;;;10.50;5.90;;;;;;;24.85;60.80;100775.17;106429;1257;61329;-74
2023/06/29 08:13:45;;;;;;;10.70;6.70;;;;;;;25.02;60.50;100775.64;107358;1256;61293;-74
2023/06/29 08:16:12;;;;;;;10.50;6.60;;;;;;;25.13;59.52;100775.86;106615;1259;73771;-74
2023/06/29 08:18:39;;;;;;;15.10;7.40;;;;;;;25.25;59.10;100773.68;106528;1256;70940;-74
2023/06/29 08:21:06;;;;;;;9.20;6.60;;;;;;;25.39;58.21;100773.52;106498;1260;72605;-75
2023/06/29 08:23:33;;;;;;;8.50;5.60;;;;;;;25.48;57.99;100774.42;106698;1258;61231;-75
2023/06/29 08:26:00;;;;;;;9.50;6.00;;;;;;;25.65;58.15;100769.04;106518;1260;61193;-74
2023/06/29 08:28:26;;;;;;;9.60;5.70;;;;;;;25.85;57.97;100766.66;107754;1259;73537;-76
2023/06/29 08:30:54;;;;;;;9.50;6.20;;;;;;;25.96;56.97;100765.30;106758;1262;72299;-74
2023/06/29 08:33:23;;;;;;;10.00;6.10;;;;;;;26.12;56.95;100767.26;106072;1263;72665;-73
2023/06/29 08:35:51;;;;;;;12.40;6.20;;;;;;;26.31;57.15;100760.13;106374;1262;61356;-75
2023/06/29 08:38:18;;;;;;;10.50;6.10;;;;;;;26.54;56.30;100761.16;106867;1259;61369;-74
2023/06/29 08:40:49;;;;;;;12.20;7.80;;;;;;;26.67;55.17;100765.19;106813;1257;73609;-73
2023/06/29 08:43:16;;;;;;;11.90;7.10;;;;;;;26.72;54.16;100764.73;106268;1263;70048;-73
2023/06/29 08:45:43;;;;;;;11.40;6.70;;;;;;;26.73;54.18;100764.23;105951;1263;72735;-75
2023/06/29 08:48:12;;;;;;;10.70;7.00;;;;;;;26.88;54.79;100764.40;106893;1260;61279;-75
2023/06/29 08:50:45;;;;;;;12.20;6.60;;;;;;;27.04;54.65;100764.79;106941;1257;61186;-74
2023/06/29 08:53:13;;;;;;;15.10;9.90;;;;;;;27.18;53.90;100767.24;106276;1260;75653;-73
2023/06/29 08:55:42;;;;;;;12.80;8.90;;;;;;;27.26;53.45;100768.34;106475;1257;72090;-74
2023/06/29 08:58:08;;;;;;;11.20;6.90;;;;;;;27.39;53.03;100766.44;107232;1263;72713;-76
2023/06/29 09:00:37;;;;;;;13.70;7.10;;;;;;;27.41;52.59;100766.04;106530;1260;61346;-74
2023/06/29 09:03:05;;;;;;;11.00;6.80;;;;;;;27.47;52.78;100763.32;106414;1262;61754;-75
2023/06/29 09:05:32;;;;;;;10.40;7.10;;;;;;;27.54;52.40;100762.66;106719;1257;74906;-75
2023/06/29 09:07:59;;;;;;;13.00;8.90;;;;;;;27.47;52.04;100769.59;107145;1258;70037;-75
2023/06/29 09:10:26;;;;;;;11.90;8.40;;;;;;;27.35;51.80;100765.77;106102;1260;72673;-75
2023/06/29 09:12:54;;;;;;;14.30;9.50;;;;;;;27.32;52.49;100768.25;106429;1262;61196;-75
2023/06/29 09:15:25;;;;;;;10.50;7.60;;;;;;;27.31;52.67;100770.20;108434;1257;60417;-78
2023/06/29 09:17:55;;;;;;;12.60;9.40;;;;;;;27.19;52.05;100769.38;106313;1257;74877;-76
2023/06/29 09:20:25;;;;;;;12.70;7.90;;;;;;;27.02;52.43;100767.52;106453;1257;71368;-74
2023/06/29 09:22:52;;;;;;;12.00;7.00;;;;;;;26.86;52.45;100763.55;106319;1262;71154;-76
2023/06/29 09:25:19;;;;;;;10.50;6.80;;;;;;;26.73;53.22;100765.42;107192;1260;60629;-76
2023/06/29 09:28:04;;;;;;;11.00;6.90;;;;;;;26.64;53.04;100766.46;106564;1257;61362;-74
2023/06/29 09:30:38;;;;;;;11.00;7.10;;;;;;;26.53;52.90;100761.06;106307;1261;73189;-74
2023/06/29 09:33:08;;;;;;;9.40;5.90;;;;;;;26.49;52.79;100758.90;107060;1257;72381;-73
2023/06/29 09:35:37;;;;;;;9.80;6.50;;;;;;;26.41;53.85;100760.08;106669;1260;73636;-76
2023/06/29 09:38:03;;;;;;;7.40;4.60;;;;;;;26.40;53.51;100761.10;106489;1267;61371;-73
2023/06/29 09:40:30;;;;;;;8.70;4.40;;;;;;;26.30;52.54;100763.60;106264;1258;61851;-74
2023/06/29 09:43:02;;;;;;;7.40;4.50;;;;;;;26.17;52.46;100757.90;107454;1259;74335;-76
2023/06/29 09:45:31;;;;;;;7.70;4.70;;;;;;;26.11;52.67;100760.91;106656;1257;71370;-75
2023/06/29 09:47:57;;;;;;;8.00;4.40;;;;;;;26.12;52.62;100763.02;106454;1257;70904;-75
2023/06/29 09:50:27;;;;;;;7.00;4.70;;;;;;;26.11;52.53;100762.16;106937;1262;61273;-74
2023/06/29 09:52:55;;;;;;;7.30;4.20;;;;;;;26.17;52.58;100763.48;106328;1260;61337;-75
2023/06/29 09:55:30;;;;;;;7.50;5.00;;;;;;;26.17;52.35;100761.27;106426;1257;73392;-76
2023/06/29 09:57:57;;;;;;;7.90;4.70;;;;;;;26.24;52.31;100757.77;106397;1271;69940;-75
2023/06/29 10:00:27;;;;;;;7.50;4.10;;;;;;;26.29;52.09;100756.80;106981;1260;72726;-75
2023/06/29 10:02:54;;;;;;;8.20;5.80;;;;;;;26.40;51.92;100759.74;106849;1257;61292;-73
2023/06/29 10:05:21;;;;;;;8.50;5.40;;;;;;;26.45;51.58;100760.05;107163;1260;61333;-76
2023/06/29 10:07:50;;;;;;;7.60;5.30;;;;;;;26.38;51.47;100761.77;107148;1260;73550;-73
2023/06/29 10:10:18;;;;;;;6.40;4.70;;;;;;;26.26;51.62;100763.67;106698;1260;70332;-76
2023/06/29 10:12:49;;;;;;;7.00;4.30;;;;;;;26.20;52.20;100763.27;107694;1262;71240;-75
2023/06/29 10:15:18;;;;;;;8.30;5.60;;;;;;;26.15;52.15;100762.38;107082;1260;61343;-75
2023/06/29 10:18:11;;;;;;;7.50;5.10;;;;;;;26.13;52.52;100760.58;106712;1257;61177;-75
2023/06/29 10:20:40;;;;;;;8.60;4.40;;;;;;;26.09;53.08;100757.27;107844;1261;73221;-76
2023/06/29 10:23:09;;;;;;;7.00;4.50;;;;;;;26.10;53.24;100757.01;106510;1263;69944;-76
2023/06/29 10:25:39;;;;;;;7.30;4.60;;;;;;;26.13;52.58;100756.48;106215;1260;72767;-74
2023/06/29 10:28:07;;;;;;;7.30;4.60;;;;;;;26.13;52.56;100752.15;107138;1258;61279;-74
2023/06/29 10:30:48;;;;;;;7.00;5.10;;;;;;;26.21;52.62;100747.17;106394;1263;61445;-76
2023/06/29 10:33:22;;;;;;;6.90;4.20;;;;;;;26.31;52.06;100745.38;106255;1260;74838;-74
2023/06/29 10:36:16;;;;;;;6.90;4.30;;;;;;;26.35;51.96;100738.89;106386;1260;69035;-76
2023/06/29 10:38:45;;;;;;;8.00;4.60;;;;;;;26.41;52.26;100738.81;106816;1256;73526;-76
2023/06/29 10:41:26;;;;;;;7.10;5.00;;;;;;;26.42;51.43;100737.11;107076;1258;61302;-75
2023/06/29 10:44:00;;;;;;;7.40;5.30;;;;;;;26.40;51.25;100735.31;106446;1257;61235;-76
2023/06/29 10:46:49;;;;;;;8.10;4.90;;;;;;;26.35;51.25;100734.27;106519;1261;73553;-75
2023/06/29 10:49:24;;;;;;;7.90;5.10;;;;;;;26.31;51.80;100732.16;106599;1260;69950;-76
2023/06/29 10:52:00;;;;;;;6.50;4.40;;;;;;;26.31;52.12;100731.46;106472;1260;72963;-75
2023/06/29 10:54:27;;;;;;;7.40;4.40;;;;;;;26.30;52.03;100728.10;106508;1260;61317;-75
2023/06/29 10:56:59;;;;;;;6.70;4.40;;;;;;;26.26;52.07;100724.25;107407;1257;59307;-74
2023/06/29 10:59:27;;;;;;;6.10;4.60;;;;;;;26.25;51.93;100720.98;106658;1257;75700;-76
2023/06/29 11:01:54;;;;;;;6.20;4.40;;;;;;;26.24;52.25;100717.84;106206;1263;70335;-77
2023/06/29 11:04:21;;;;;;;7.70;4.70;;;;;;;26.23;51.93;100719.86;106949;1257;71185;-78
2023/06/29 11:06:49;;;;;;;7.70;4.90;;;;;;;26.19;52.51;100716.67;107267;1257;59655;-76
2023/06/29 11:09:16;;;;;;;7.00;4.70;;;;;;;26.14;52.43;100716.09;106590;1257;61308;-76
2023/06/29 11:11:45;;;;;;;9.70;5.20;;;;;;;26.13;52.05;100715.23;107052;1258;73309;-76
2023/06/29 11:14:12;;;;;;;9.40;5.40;;;;;;;26.12;51.93;100715.84;108486;1257;70119;-76
2023/06/29 11:16:39;;;;;;;9.00;5.00;;;;;;;26.11;52.29;100722.19;107024;1257;71554;-76
2023/06/29 11:19:06;;;;;;;7.90;5.30;;;;;;;26.03;52.50;100721.52;106962;1258;61560;-76